Time;durP1;ratioP1;P1;durP2;ratioP2;P2;SDS_P1;SDS_P2;PMS_P1;PMS_P2;Temp;Humidity;BMP_temperature;BMP_pressure;BME280_temperature;BME280_humidity;BME280_pressure;Samples;Min_cycle;Max_cycle;Signal;HPM_P1;HPM_P2
2021/06/24 00:01:29;;;;;;;16.12;10.07;;;;;;;26.12;57.79;99798.09;4419990;32;33514;-81
2021/06/24 00:03:57;;;;;;;18.55;9.50;;;;;;;25.99;58.26;99792.34;4416453;32;33630;-82
2021/06/24 00:06:25;;;;;;;14.80;9.32;;;;;;;25.87;58.74;99793.66;4418876;32;34255;-81
2021/06/24 00:08:53;;;;;;;11.55;9.15;;;;;;;25.92;58.70;99785.88;4414505;32;33603;-81
2021/06/24 00:11:21;;;;;;;12.95;9.18;;;;;;;25.93;58.34;99799.25;4427881;32;33802;-81
2021/06/24 00:13:49;;;;;;;16.62;9.80;;;;;;;25.86;58.31;99800.91;4430725;32;35509;-81
2021/06/24 00:16:17;;;;;;;15.65;9.77;;;;;;;25.97;57.92;99799.75;4430750;32;33709;-81
2021/06/24 00:18:45;;;;;;;12.70;9.98;;;;;;;25.88;58.53;99798.06;4427687;32;33721;-81
2021/06/24 00:21:13;;;;;;;14.20;10.65;;;;;;;25.79;58.98;99798.03;4431136;32;33079;-82
2021/06/24 00:23:40;;;;;;;14.43;10.95;;;;;;;25.86;58.72;99792.81;4427644;32;34626;-83
2021/06/24 00:26:09;;;;;;;13.55;9.23;;;;;;;25.88;58.55;99793.50;4405308;32;33271;-82
2021/06/24 00:28:37;;;;;;;11.68;10.40;;;;;;;25.88;58.46;99798.06;4416478;32;34190;-83
2021/06/24 00:31:04;;;;;;;15.57;9.68;;;;;;;25.88;58.44;99803.47;4416994;32;34132;-83
2021/06/24 00:33:40;;;;;;;13.55;10.48;;;;;;;25.68;59.02;99797.44;4430584;32;33718;-83
2021/06/24 00:36:08;;;;;;;13.35;9.63;;;;;;;25.69;58.93;99808.13;4426754;32;34617;-83
2021/06/24 00:38:36;;;;;;;12.23;10.45;;;;;;;25.74;58.87;99805.78;4414728;32;33801;-83
2021/06/24 00:41:04;;;;;;;11.98;9.27;;;;;;;25.74;58.94;99802.22;4421666;32;33425;-83
2021/06/24 00:43:37;;;;;;;13.62;10.27;;;;;;;25.76;58.97;99792.09;4433716;32;34311;-83
2021/06/24 00:46:06;;;;;;;12.13;10.02;;;;;;;25.73;59.27;99797.81;4413886;32;34831;-82
2021/06/24 00:48:34;;;;;;;16.75;9.95;;;;;;;25.73;59.15;99795.97;4429230;32;33631;-83
2021/06/24 00:51:02;;;;;;;17.98;10.13;;;;;;;25.64;59.52;99786.13;4412619;32;34914;-83
2021/06/24 00:53:30;;;;;;;14.50;9.82;;;;;;;25.67;59.34;99788.50;4406563;32;35298;-83
2021/06/24 00:55:58;;;;;;;16.15;10.80;;;;;;;25.72;59.08;99785.28;4427521;32;34838;-83
2021/06/24 00:58:33;;;;;;;12.65;9.85;;;;;;;25.46;60.04;99785.38;4416782;32;34304;-83
2021/06/24 01:01:02;;;;;;;20.88;10.50;;;;;;;25.63;59.43;99786.28;4428229;32;34149;-81
2021/06/24 01:03:30;;;;;;;14.15;10.73;;;;;;;25.63;59.37;99792.53;4412662;32;33950;-81
2021/06/24 01:05:58;;;;;;;15.45;9.20;;;;;;;25.56;59.64;99791.50;4417042;32;34030;-81
2021/06/24 01:08:29;;;;;;;12.93;10.90;;;;;;;25.58;59.71;99781.38;4419684;32;34213;-80
2021/06/24 01:10:57;;;;;;;13.98;10.27;;;;;;;25.48;60.08;99783.34;4426229;32;34053;-80
2021/06/24 01:13:25;;;;;;;18.45;10.13;;;;;;;25.39;60.32;99778.94;4423641;32;34384;-81
2021/06/24 01:15:53;;;;;;;13.62;10.07;;;;;;;25.45;60.04;99786.41;4414491;32;34316;-81
2021/06/24 01:18:22;;;;;;;14.95;11.77;;;;;;;25.51;59.88;99785.75;4430689;32;34072;-81
2021/06/24 01:20:51;;;;;;;12.18;10.20;;;;;;;25.47;59.87;99797.91;4420373;32;32958;-81
2021/06/24 01:23:18;;;;;;;18.40;10.50;;;;;;;25.51;59.60;99789.28;4427541;32;33313;-82
2021/06/24 01:25:47;;;;;;;13.90;10.23;;;;;;;25.43;59.96;99788.41;4413390;32;33306;-81
2021/06/24 01:28:15;;;;;;;13.70;10.38;;;;;;;25.37;60.33;99786.38;4431872;32;34507;-82
2021/06/24 01:30:43;;;;;;;12.80;10.43;;;;;;;25.35;60.33;99783.81;4426612;32;33206;-82
2021/06/24 01:33:12;;;;;;;14.95;10.63;;;;;;;25.39;60.04;99797.84;4425913;32;34517;-81
2021/06/24 01:35:40;;;;;;;15.20;10.27;;;;;;;25.33;60.13;99799.34;4419147;32;33479;-81
2021/06/24 01:38:10;;;;;;;13.02;10.73;;;;;;;25.27;60.18;99790.03;4403508;32;34711;-81
2021/06/24 01:40:39;;;;;;;16.23;10.88;;;;;;;25.26;60.22;99791.06;4428598;32;33328;-81
2021/06/24 01:43:07;;;;;;;13.68;10.88;;;;;;;25.27;60.18;99792.75;4428202;32;34565;-80
2021/06/24 01:45:50;;;;;;;16.70;10.60;;;;;;;25.27;60.39;99798.16;4423822;32;33719;-81
2021/06/24 01:48:18;;;;;;;14.43;11.23;;;;;;;25.14;61.10;99792.31;4428231;32;33440;-81
2021/06/24 01:50:47;;;;;;;13.48;10.43;;;;;;;25.14;60.88;99786.94;4433893;32;32433;-80
2021/06/24 01:53:15;;;;;;;15.15;10.52;;;;;;;25.17;nan;99786.63;4429797;32;33649;-81
2021/06/24 01:55:44;;;;;;;13.95;10.80;;;;;;;25.04;61.13;99778.06;4413487;32;33786;-81
2021/06/24 01:58:17;;;;;;;15.23;10.77;;;;;;;25.03;61.38;99781.78;4427237;32;33661;-81
2021/06/24 02:00:50;;;;;;;15.55;10.63;;;;;;;25.09;61.21;99778.47;4427171;32;32920;-80
2021/06/24 02:03:20;;;;;;;16.67;11.00;;;;;;;24.94;61.90;99777.34;4429303;32;33609;-81
2021/06/24 02:05:53;;;;;;;14.80;11.73;;;;;;;24.99;61.53;99772.28;4427452;32;33354;-81
2021/06/24 02:08:24;;;;;;;16.55;11.35;;;;;;;24.85;61.93;99783.69;4427210;32;33570;-81
2021/06/24 02:10:55;;;;;;;14.77;11.80;;;;;;;24.81;61.98;99785.00;4412639;32;32901;-80
2021/06/24 02:13:25;;;;;;;13.60;10.75;;;;;;;24.94;61.54;99778.19;4413546;32;33635;-81
2021/06/24 02:15:54;;;;;;;17.35;10.77;;;;;;;24.99;61.37;99783.94;4416699;32;33905;-81
2021/06/24 02:18:29;;;;;;;17.05;10.68;;;;;;;24.90;61.80;99784.06;4413001;32;34416;-81
2021/06/24 02:20:59;;;;;;;12.75;11.00;;;;;;;25.04;61.25;99780.75;4420418;32;34459;-82
2021/06/24 02:23:27;;;;;;;12.37;11.18;;;;;;;25.02;61.26;99786.34;4412417;32;33997;-82
2021/06/24 02:25:55;;;;;;;19.48;11.15;;;;;;;24.80;62.00;99786.03;4425930;32;33216;-82
2021/06/24 02:28:24;;;;;;;15.35;11.63;;;;;;;24.83;61.95;99786.56;4427378;32;34489;-82
2021/06/24 02:30:52;;;;;;;14.10;10.90;;;;;;;24.77;62.11;99790.72;4410621;32;33490;-81
2021/06/24 02:33:20;;;;;;;15.05;12.52;;;;;;;24.67;62.62;99784.56;4422550;32;33456;-81
2021/06/24 02:35:55;;;;;;;13.90;10.70;;;;;;;24.72;62.26;99776.84;4416340;32;34011;-82
2021/06/24 02:38:24;;;;;;;15.02;11.98;;;;;;;24.77;61.96;99771.81;4428100;32;34623;-82
2021/06/24 02:40:54;;;;;;;19.42;11.70;;;;;;;24.73;61.92;99778.53;4416043;32;33921;-82
2021/06/24 02:43:22;;;;;;;14.35;11.25;;;;;;;24.46;62.86;99776.00;4426744;32;33610;-81
2021/06/24 02:45:50;;;;;;;16.98;11.90;;;;;;;24.42;63.05;99777.31;4403378;32;34450;-81
2021/06/24 02:48:24;;;;;;;19.27;11.77;;;;;;;24.52;62.81;99765.41;4427733;32;33716;-81
2021/06/24 02:50:52;;;;;;;15.77;11.68;;;;;;;24.57;62.79;99767.63;4415755;32;33097;-81
2021/06/24 02:53:20;;;;;;;20.33;12.52;;;;;;;24.56;62.83;99768.66;4428986;32;33642;-81
2021/06/24 02:55:51;;;;;;;17.60;11.65;;;;;;;24.64;62.61;99763.31;4415050;32;33656;-81
2021/06/24 02:58:20;;;;;;;16.08;12.07;;;;;;;24.77;62.18;99758.31;4429823;32;33595;-81
2021/06/24 03:00:49;;;;;;;17.10;11.45;;;;;;;24.71;62.48;99753.56;4417025;32;33286;-81
2021/06/24 03:03:17;;;;;;;17.30;12.20;;;;;;;24.78;62.31;99765.44;4421807;32;33673;-81
2021/06/24 03:05:48;;;;;;;14.80;12.00;;;;;;;24.56;63.08;99759.69;4413732;32;33483;-81
2021/06/24 03:08:16;;;;;;;17.40;12.25;;;;;;;24.59;62.93;99762.06;4416922;32;33642;-81
2021/06/24 03:10:47;;;;;;;16.20;11.63;;;;;;;24.56;63.04;99765.94;4424716;32;33577;-82
2021/06/24 03:13:15;;;;;;;14.73;11.80;;;;;;;24.81;62.40;99768.81;4429772;32;33351;-82
2021/06/24 03:15:43;;;;;;;15.90;11.27;;;;;;;24.67;63.10;99776.47;4412763;32;34521;-81
2021/06/24 03:18:11;;;;;;;15.13;12.10;;;;;;;25.07;61.68;99774.19;4428594;32;33750;-82
2021/06/24 03:20:39;;;;;;;20.27;12.00;;;;;;;24.89;62.18;99779.66;4429472;32;33289;-81
2021/06/24 03:23:07;;;;;;;20.35;12.10;;;;;;;24.59;63.19;99786.38;4428779;32;33553;-81
2021/06/24 03:25:35;;;;;;;21.05;11.70;;;;;;;24.59;63.18;99792.59;4412321;32;33962;-81
2021/06/24 03:28:04;;;;;;;19.62;12.57;;;;;;;24.55;63.27;99788.56;4429625;32;32887;-81
2021/06/24 03:30:33;;;;;;;18.23;12.80;;;;;;;24.64;63.11;99794.84;4413245;32;34056;-81
2021/06/24 03:33:00;;;;;;;17.27;11.90;;;;;;;24.56;63.70;99792.94;4428162;32;33626;-82
2021/06/24 03:35:30;;;;;;;17.90;12.70;;;;;;;24.63;63.54;99794.00;4422864;32;33732;-81
2021/06/24 03:37:58;;;;;;;14.63;10.90;;;;;;;24.66;63.42;99793.69;4432867;32;33590;-81
2021/06/24 03:40:27;;;;;;;14.23;10.55;;;;;;;24.72;63.31;99798.44;4416536;32;32665;-81
2021/06/24 03:42:57;;;;;;;14.15;11.10;;;;;;;25.16;61.50;99793.03;4418062;32;35506;-80
2021/06/24 03:45:25;;;;;;;15.93;11.07;;;;;;;24.85;62.64;99797.19;4431604;32;34688;-81
2021/06/24 03:47:53;;;;;;;14.35;11.77;;;;;;;24.84;62.91;99806.31;4427186;32;33485;-81
2021/06/24 03:50:21;;;;;;;19.50;12.05;;;;;;;24.91;62.82;99802.78;4431258;32;33211;-82
2021/06/24 03:52:50;;;;;;;14.20;10.60;;;;;;;24.96;62.77;99803.16;4418971;32;33462;-82
2021/06/24 03:55:19;;;;;;;17.73;11.75;;;;;;;25.04;62.67;99799.69;4428539;32;33176;-84
2021/06/24 03:58:00;;;;;;;14.18;11.73;;;;;;;25.13;62.44;99797.91;4431365;32;33833;-81
2021/06/24 04:00:28;;;;;;;13.32;10.93;;;;;;;25.06;62.63;99797.66;4417691;32;34522;-82
2021/06/24 04:03:01;;;;;;;17.33;10.63;;;;;;;25.57;60.61;99795.91;4426800;32;33757;-81
2021/06/24 04:05:31;;;;;;;18.77;11.23;;;;;;;25.65;60.20;99795.94;4429863;32;33719;-82
2021/06/24 04:08:01;;;;;;;13.60;11.12;;;;;;;25.66;59.94;99796.78;4417418;32;35556;-80
2021/06/24 04:10:30;;;;;;;15.50;11.60;;;;;;;25.61;60.07;99799.97;4430584;32;33219;-82
2021/06/24 04:12:59;;;;;;;22.55;11.90;;;;;;;25.49;60.58;99801.28;4420588;32;33309;-81
2021/06/24 04:15:28;;;;;;;15.00;10.60;;;;;;;25.48;60.54;99799.56;4430145;32;34243;-81
2021/06/24 04:17:56;;;;;;;17.58;11.73;;;;;;;25.23;61.72;99802.19;4426892;32;33381;-81
2021/06/24 04:20:24;;;;;;;19.83;12.02;;;;;;;25.38;61.39;99806.97;4432443;32;33506;-81
2021/06/24 04:22:52;;;;;;;19.70;12.48;;;;;;;25.37;61.75;99805.28;4419585;32;35139;-81
2021/06/24 04:25:21;;;;;;;20.05;12.37;;;;;;;25.43;61.77;99801.94;4429067;32;34535;-81
2021/06/24 04:27:50;;;;;;;15.00;11.07;;;;;;;25.53;61.44;99802.63;4418265;32;33661;-82
2021/06/24 04:30:19;;;;;;;15.63;11.38;;;;;;;25.64;61.29;99804.22;4417669;32;35243;-82
2021/06/24 04:32:49;;;;;;;15.15;11.35;;;;;;;25.94;61.21;99795.53;4414252;32;34006;-81
2021/06/24 04:35:20;;;;;;;13.40;11.00;;;;;;;26.17;60.44;99795.75;4431204;32;33561;-81
2021/06/24 04:37:48;;;;;;;13.55;11.20;;;;;;;26.11;60.94;99803.66;4413055;32;33626;-81
2021/06/24 04:40:16;;;;;;;13.85;11.05;;;;;;;26.29;60.09;99802.50;4426682;32;32861;-81
2021/06/24 04:42:45;;;;;;;17.55;12.10;;;;;;;26.43;60.15;99802.87;4416431;32;34260;-81
2021/06/24 04:45:14;;;;;;;19.25;11.45;;;;;;;26.71;59.03;99793.41;4422506;32;33691;-81
2021/06/24 04:47:43;;;;;;;18.60;11.50;;;;;;;26.73;59.59;99794.09;4426838;32;34376;-81
2021/06/24 04:50:12;;;;;;;17.62;11.77;;;;;;;26.67;60.37;99797.47;4414531;32;32065;-81
2021/06/24 04:52:42;;;;;;;22.55;10.57;;;;;;;27.00;60.06;99792.00;4428522;32;33114;-82
2021/06/24 04:55:10;;;;;;;17.33;12.10;;;;;;;27.28;58.67;99787.87;4423081;32;34576;-81
2021/06/24 04:57:40;;;;;;;16.62;12.25;;;;;;;27.47;57.74;99789.31;4416595;32;32705;-81
2021/06/24 05:00:09;;;;;;;13.90;11.23;;;;;;;27.59;57.54;99787.09;4424539;32;32843;-81
2021/06/24 05:02:41;;;;;;;22.27;11.02;;;;;;;27.63;57.90;99784.84;4427144;32;32767;-81
2021/06/24 05:05:11;;;;;;;17.83;12.05;;;;;;;27.66;58.19;99787.22;4426030;32;34246;-82
2021/06/24 05:07:39;;;;;;;17.37;12.02;;;;;;;27.86;57.43;99785.75;4413042;32;34573;-81
2021/06/24 05:10:08;;;;;;;20.50;11.93;;;;;;;27.76;57.99;99794.13;4429672;32;33959;-82
2021/06/24 05:12:35;;;;;;;19.00;11.32;;;;;;;28.00;58.38;99784.16;4425287;32;34506;-81
2021/06/24 05:15:04;;;;;;;20.30;11.52;;;;;;;27.92;58.15;99787.78;4421396;32;34678;-82
2021/06/24 05:17:32;;;;;;;20.20;11.60;;;;;;;27.75;58.53;99794.31;4416444;32;33418;-82
2021/06/24 05:19:59;;;;;;;20.12;10.38;;;;;;;28.13;57.78;99789.84;4423154;32;33062;-81
2021/06/24 05:22:27;;;;;;;20.55;11.15;;;;;;;28.49;56.64;99776.53;4424627;32;33332;-82
2021/06/24 05:24:55;;;;;;;21.80;11.32;;;;;;;28.50;56.88;99780.06;4422152;32;32948;-81
2021/06/24 05:27:23;;;;;;;27.27;10.93;;;;;;;28.49;56.67;99781.09;4412028;32;35796;-81
2021/06/24 05:29:51;;;;;;;19.42;9.70;;;;;;;28.66;56.25;99789.94;4418711;32;32828;-82
2021/06/24 05:32:18;;;;;;;15.23;9.73;;;;;;;28.98;55.51;99788.81;4424371;32;34657;-82
2021/06/24 05:34:46;;;;;;;15.48;10.40;;;;;;;29.03;55.37;99789.09;4422536;32;33743;-82
2021/06/24 05:37:17;;;;;;;20.48;9.02;;;;;;;29.19;54.15;99782.63;4402061;32;35210;-82
2021/06/24 05:39:45;;;;;;;18.02;9.38;;;;;;;29.49;53.59;99778.84;4413132;32;35608;-82
2021/06/24 05:42:13;;;;;;;17.40;9.02;;;;;;;29.08;54.54;99773.91;4428286;32;33732;-82
2021/06/24 05:44:41;;;;;;;17.23;8.95;;;;;;;29.42;53.08;99771.63;4426782;32;34485;-83
2021/06/24 05:47:09;;;;;;;17.98;9.90;;;;;;;29.64;52.67;99770.69;4424083;32;34333;-82
2021/06/24 05:49:37;;;;;;;13.23;8.52;;;;;;;29.47;53.30;99771.91;4414643;32;34562;-82
2021/06/24 05:52:05;;;;;;;19.58;9.80;;;;;;;29.74;52.99;99767.66;4424791;32;33609;-82
2021/06/24 05:54:33;;;;;;;21.45;9.45;;;;;;;29.55;52.55;99769.12;4417167;32;34167;-81
2021/06/24 05:57:00;;;;;;;15.93;8.40;;;;;;;29.39;52.51;99769.28;4426244;32;33536;-81
2021/06/24 05:59:28;;;;;;;15.85;7.97;;;;;;;29.83;50.94;99772.81;4403907;32;32112;-81
2021/06/24 06:01:56;;;;;;;20.80;8.45;;;;;;;30.02;49.74;99767.78;4413740;32;33154;-81
2021/06/24 06:04:24;;;;;;;14.57;8.65;;;;;;;30.17;49.42;99768.56;4424674;32;33822;-81
2021/06/24 06:06:52;;;;;;;25.70;8.63;;;;;;;30.19;50.17;99771.09;4409744;32;33527;-82
2021/06/24 06:09:19;;;;;;;20.58;8.82;;;;;;;30.32;48.67;99771.22;4410574;32;35456;-81
2021/06/24 06:11:47;;;;;;;23.48;9.38;;;;;;;30.05;50.07;99770.09;4423254;32;33369;-81
2021/06/24 06:14:15;;;;;;;22.50;9.27;;;;;;;30.05;49.36;99776.41;4419449;32;33592;-81
2021/06/24 06:16:45;;;;;;;16.08;7.82;;;;;;;30.27;49.04;99774.53;4426912;32;32356;-81
2021/06/24 06:19:13;;;;;;;18.98;7.65;;;;;;;30.43;47.90;99778.03;4412691;32;32656;-81
2021/06/24 06:21:41;;;;;;;21.42;8.00;;;;;;;30.17;50.04;99778.63;4424135;32;33776;-81
2021/06/24 06:24:09;;;;;;;19.40;7.62;;;;;;;30.51;49.59;99776.00;4408152;32;33989;-83
2021/06/24 06:26:37;;;;;;;12.75;7.90;;;;;;;30.56;47.88;99778.97;4405421;32;33862;-81
2021/06/24 06:29:05;;;;;;;22.08;8.20;;;;;;;30.80;47.17;99776.91;4397501;32;32455;-81
2021/06/24 06:31:37;;;;;;;20.27;7.72;;;;;;;31.08;46.56;99772.25;4410796;32;33663;-81
2021/06/24 06:34:06;;;;;;;16.30;7.10;;;;;;;30.92;46.65;99777.19;4401346;32;34152;-81
2021/06/24 06:36:34;;;;;;;26.02;9.95;;;;;;;30.92;46.63;99788.09;4403765;32;33439;-81
2021/06/24 06:39:03;;;;;;;15.13;7.78;;;;;;;30.59;48.42;99789.50;4403570;32;34029;-80
2021/06/24 06:41:32;;;;;;;15.85;9.02;;;;;;;31.07;45.78;99788.84;4397787;32;34263;-82
2021/06/24 06:44:00;;;;;;;14.63;8.45;;;;;;;30.77;46.78;99786.31;4407411;32;34625;-82
2021/06/24 06:46:28;;;;;;;17.87;8.15;;;;;;;31.10;46.00;99782.97;4406892;32;34052;-81
2021/06/24 06:48:56;;;;;;;23.33;7.93;;;;;;;31.25;45.05;99780.13;4407428;32;33048;-82
2021/06/24 06:51:24;;;;;;;19.23;9.77;;;;;;;30.99;46.13;99791.69;4403551;32;34235;-84
2021/06/24 06:53:53;;;;;;;18.52;8.93;;;;;;;31.17;46.28;99797.50;4394582;32;33624;-83
2021/06/24 06:56:21;;;;;;;18.67;8.43;;;;;;;31.13;45.89;99796.19;4398382;32;33441;-83
2021/06/24 06:58:49;;;;;;;15.27;8.50;;;;;;;31.45;45.83;99796.63;4405275;32;33009;-84
2021/06/24 07:01:17;;;;;;;18.95;8.30;;;;;;;31.34;47.23;99796.16;4396125;32;33588;-84
2021/06/24 07:03:45;;;;;;;23.00;9.07;;;;;;;31.70;45.66;99805.13;4382303;32;35194;-83
2021/06/24 07:06:14;;;;;;;17.52;8.25;;;;;;;31.69;44.91;99807.03;4396694;32;34657;-83
2021/06/24 07:08:43;;;;;;;21.30;9.43;;;;;;;31.99;45.61;99802.09;4407775;32;31841;-87
2021/06/24 07:11:11;;;;;;;20.05;8.90;;;;;;;32.03;44.57;99797.06;4396405;32;33168;-82
2021/06/24 07:13:39;;;;;;;20.20;10.13;;;;;;;32.46;45.12;99797.59;4408902;32;34555;-81
2021/06/24 07:16:07;;;;;;;21.10;10.00;;;;;;;32.39;44.06;99796.75;4396778;32;33805;-82
2021/06/24 07:18:35;;;;;;;28.25;9.95;;;;;;;32.28;43.81;99792.69;4404858;32;33193;-82
2021/06/24 07:21:03;;;;;;;20.45;8.27;;;;;;;32.58;43.21;99784.16;4408226;32;34365;-81
2021/06/24 07:23:31;;;;;;;24.00;8.82;;;;;;;32.40;43.49;99781.19;4396902;32;33957;-83
2021/06/24 07:25:59;;;;;;;20.02;8.82;;;;;;;32.57;43.64;99782.44;4392917;32;33628;-82
2021/06/24 07:28:27;;;;;;;19.15;8.52;;;;;;;32.96;42.41;99780.78;4395438;32;34761;-83
2021/06/24 07:30:55;;;;;;;21.87;9.20;;;;;;;32.52;43.10;99779.50;4395558;32;34620;-82
2021/06/24 07:33:24;;;;;;;16.85;8.32;;;;;;;32.84;43.72;99778.66;4397918;32;34225;-82
2021/06/24 07:35:54;;;;;;;14.02;8.23;;;;;;;32.52;41.52;99790.44;4410241;32;33758;-82
2021/06/24 07:38:22;;;;;;;25.02;9.75;;;;;;;32.96;43.37;99784.38;4395161;32;32345;-82
2021/06/24 07:40:50;;;;;;;22.15;9.18;;;;;;;32.83;42.07;99787.06;4399300;32;34204;-82
2021/06/24 07:43:18;;;;;;;21.15;10.13;;;;;;;32.97;41.58;99793.41;4395009;32;33748;-81
2021/06/24 07:45:45;;;;;;;21.48;8.60;;;;;;;33.05;41.12;99779.50;4394125;32;34257;-81
2021/06/24 07:48:13;;;;;;;13.25;7.35;;;;;;;33.21;39.78;99783.69;4404371;32;34823;-82
2021/06/24 07:50:41;;;;;;;16.87;8.52;;;;;;;33.07;41.87;99782.88;4408914;32;32361;-82
2021/06/24 07:53:09;;;;;;;18.35;8.35;;;;;;;32.96;41.00;99775.31;4387780;32;33512;-82
2021/06/24 07:55:38;;;;;;;17.35;7.82;;;;;;;33.25;40.92;99774.81;4391894;32;35096;-82
2021/06/24 07:58:07;;;;;;;25.65;7.78;;;;;;;33.15;40.80;99771.69;4405187;32;33027;-82
2021/06/24 08:00:36;;;;;;;20.25;7.03;;;;;;;33.78;40.42;99769.16;4406811;32;33450;-82
2021/06/24 08:03:24;;;;;;;17.77;6.78;;;;;;;33.80;38.43;99772.50;4394633;32;33733;-83
2021/06/24 08:05:51;;;;;;;15.43;6.68;;;;;;;33.96;37.42;99765.72;4408053;32;34407;-82
2021/06/24 08:08:19;;;;;;;14.13;6.05;;;;;;;34.11;36.50;99768.97;4397338;32;34577;-83
2021/06/24 08:10:47;;;;;;;21.10;6.72;;;;;;;34.55;36.47;99761.72;4406056;32;34657;-82
2021/06/24 08:13:15;;;;;;;17.77;6.22;;;;;;;34.69;34.61;99762.44;4404347;32;33477;-83
2021/06/24 08:15:43;;;;;;;12.10;5.60;;;;;;;34.64;33.89;99756.78;4406115;32;34339;-84
2021/06/24 08:18:11;;;;;;;15.43;5.37;;;;;;;34.69;30.70;99769.81;4410595;32;35188;-83
2021/06/24 08:20:39;;;;;;;10.88;5.15;;;;;;;34.51;30.51;99749.50;4391804;32;33588;-84
2021/06/24 08:23:06;;;;;;;18.85;4.43;;;;;;;34.73;31.73;99752.69;4407508;32;33727;-83
2021/06/24 08:25:34;;;;;;;14.40;4.18;;;;;;;34.96;31.05;99748.50;4385273;32;33022;-83
2021/06/24 08:28:03;;;;;;;12.18;5.15;;;;;;;35.20;29.04;99750.34;4405972;32;33037;-83
2021/06/24 08:30:30;;;;;;;10.38;4.18;;;;;;;34.84;31.02;99751.94;4394514;32;34114;-84
2021/06/24 08:32:58;;;;;;;12.77;4.20;;;;;;;35.21;29.58;99746.53;4399477;32;31872;-83
2021/06/24 08:35:26;;;;;;;18.92;5.45;;;;;;;35.67;29.53;99750.63;4394372;32;32226;-83
2021/06/24 08:37:54;;;;;;;19.95;5.07;;;;;;;35.82;29.37;99753.78;4410102;32;33064;-83
2021/06/24 08:40:23;;;;;;;13.13;4.65;;;;;;;35.90;29.11;99755.38;4406927;32;34613;-83
2021/06/24 08:42:51;;;;;;;12.88;5.12;;;;;;;35.77;29.43;99750.91;4410171;32;33648;-84
2021/06/24 08:45:22;;;;;;;13.35;5.47;;;;;;;35.90;28.76;99745.22;4397567;32;34251;-83
2021/06/24 08:47:53;;;;;;;17.95;4.82;;;;;;;35.92;28.10;99743.06;4393103;32;33148;-83
2021/06/24 08:50:24;;;;;;;17.67;4.12;;;;;;;35.51;29.08;99745.75;4396250;32;31748;-83
2021/06/24 08:52:54;;;;;;;8.23;3.72;;;;;;;36.08;29.22;99735.25;4404194;32;33793;-83
2021/06/24 08:55:40;;;;;;;10.63;3.85;;;;;;;36.19;28.32;99737.22;4395717;32;33877;-83
2021/06/24 08:58:08;;;;;;;18.70;4.75;;;;;;;36.56;28.67;99728.81;4401249;32;34116;-84
2021/06/24 09:00:39;;;;;;;12.77;3.75;;;;;;;36.15;28.79;99734.09;4404557;32;33457;-84
2021/06/24 09:03:15;;;;;;;14.90;4.00;;;;;;;36.33;26.92;99730.44;4406228;32;33297;-84
2021/06/24 09:06:04;;;;;;;17.42;3.50;;;;;;;36.02;28.59;99739.78;4409711;32;33522;-83
2021/06/24 09:08:42;;;;;;;19.87;4.35;;;;;;;36.05;27.99;99742.06;4396806;32;33911;-83
2021/06/24 09:11:40;;;;;;;13.10;3.40;;;;;;;36.02;28.98;99752.69;4398752;32;33633;-83
2021/06/24 09:14:11;;;;;;;14.30;4.32;;;;;;;35.66;27.96;99754.44;4396816;32;33723;-84
2021/06/24 09:16:41;;;;;;;16.23;3.28;;;;;;;35.94;27.69;99734.63;4405443;32;33626;-83
2021/06/24 09:19:26;;;;;;;11.18;3.92;;;;;;;36.17;27.02;99740.19;4412252;32;33129;-83
2021/06/24 09:22:04;;;;;;;22.62;3.80;;;;;;;36.04;27.59;99745.91;4404365;32;34654;-84
2021/06/24 09:24:39;;;;;;;14.30;3.65;;;;;;;36.35;28.46;99744.75;4420740;32;34837;-83
2021/06/24 09:27:26;;;;;;;17.27;3.95;;;;;;;36.99;26.82;99741.37;4406051;32;33265;-83
2021/06/24 09:30:07;;;;;;;14.23;4.35;;;;;;;37.11;26.38;99731.19;4399365;32;33745;-82
2021/06/24 09:32:40;;;;;;;20.90;4.68;;;;;;;37.36;27.05;99726.19;4403769;32;33707;-84
2021/06/24 09:35:19;;;;;;;11.82;3.35;;;;;;;37.11;27.06;99733.94;4406986;32;34689;-83
2021/06/24 09:38:10;;;;;;;10.70;3.45;;;;;;;36.93;26.79;99723.91;4410648;32;34407;-83
2021/06/24 09:40:56;;;;;;;11.93;4.45;;;;;;;37.35;27.21;99723.69;4394056;32;34152;-83
2021/06/24 09:43:24;;;;;;;11.10;3.35;;;;;;;37.03;26.47;99715.03;4403663;32;33587;-83
2021/06/24 09:46:17;;;;;;;16.35;4.20;;;;;;;37.10;26.93;99713.00;4403739;32;33225;-82
2021/06/24 09:49:12;;;;;;;17.27;3.83;;;;;;;37.22;27.00;99708.28;4407321;32;33577;-83
2021/06/24 09:51:39;;;;;;;14.45;4.50;;;;;;;37.35;27.35;99708.00;4401923;32;34460;-83
2021/06/24 09:54:13;;;;;;;15.50;4.37;;;;;;;37.55;27.30;99699.34;4418343;32;33937;-83
2021/06/24 09:56:54;;;;;;;15.82;4.32;;;;;;;37.78;26.50;99701.16;4395913;32;34395;-83
2021/06/24 09:59:34;;;;;;;13.70;4.20;;;;;;;37.74;27.21;99699.97;4409728;32;33683;-83
2021/06/24 10:02:08;;;;;;;10.45;4.05;;;;;;;37.81;26.98;99688.81;4412282;32;35464;-83
2021/06/24 10:04:38;;;;;;;13.70;3.42;;;;;;;37.69;26.87;99677.84;4422097;32;33603;-82
2021/06/24 10:07:09;;;;;;;18.17;4.37;;;;;;;37.11;27.65;99684.38;4411748;32;34805;-83
2021/06/24 10:09:45;;;;;;;16.37;4.15;;;;;;;37.53;27.58;99679.47;4406897;32;34521;-83
2021/06/24 10:12:17;;;;;;;12.35;3.40;;;;;;;37.30;28.08;99672.09;4397719;32;35206;-83
2021/06/24 10:14:46;;;;;;;12.27;4.40;;;;;;;37.34;26.43;99673.28;4392413;32;36157;-83
2021/06/24 10:17:14;;;;;;;15.15;4.22;;;;;;;37.58;27.63;99675.97;4411019;32;33436;-83
2021/06/24 10:19:45;;;;;;;18.52;4.43;;;;;;;37.73;26.12;99668.00;4394594;32;33108;-83
2021/06/24 10:22:23;;;;;;;;;;;;;;;37.66;26.71;99661.81;4418155;32;33317;-83
2021/06/24 10:25:09;;;;;;;11.52;3.47;;;;;;;37.49;26.84;99660.94;4413528;32;33072;-83
2021/06/24 10:27:39;;;;;;;11.70;3.78;;;;;;;37.71;26.96;99650.87;4413908;32;34247;-84
2021/06/24 10:30:11;;;;;;;15.50;3.60;;;;;;;38.12;26.83;99644.16;4423027;32;34336;-83
2021/06/24 10:32:41;;;;;;;15.52;4.18;;;;;;;38.10;26.26;99645.50;4412989;32;34064;-83
2021/06/24 10:35:24;;;;;;;13.82;3.70;;;;;;;38.09;26.30;99646.59;4425934;32;34192;-84
2021/06/24 10:38:05;;;;;;;18.73;4.90;;;;;;;38.24;24.51;99651.53;4418347;32;34027;-84
2021/06/24 10:40:37;;;;;;;11.95;4.03;;;;;;;38.26;26.42;99655.69;4419992;32;32976;-83
2021/06/24 10:43:07;;;;;;;13.65;3.90;;;;;;;38.26;27.30;99652.91;4424711;32;34337;-83
2021/06/24 10:45:36;;;;;;;12.70;4.15;;;;;;;38.59;23.86;99637.44;4414403;32;33477;-83
2021/06/24 10:48:25;;;;;;;10.00;2.97;;;;;;;38.75;26.31;99653.16;4422086;32;33640;-83
2021/06/24 10:51:00;;;;;;;14.13;4.10;;;;;;;38.87;25.08;99647.50;4412055;32;33438;-84
2021/06/24 10:53:28;;;;;;;22.40;4.82;;;;;;;38.73;24.18;99652.53;4422997;32;34205;-86
2021/06/24 10:55:56;;;;;;;12.32;5.28;;;;;;;38.64;25.16;99654.06;4425312;32;33640;-85
2021/06/24 10:58:27;;;;;;;24.65;4.22;;;;;;;38.81;23.58;99648.53;4427586;32;34743;-84
2021/06/24 11:00:59;;;;;;;23.90;5.28;;;;;;;39.12;23.82;99644.22;4424947;32;32739;-84
2021/06/24 11:03:26;;;;;;;14.73;4.20;;;;;;;39.10;24.25;99652.78;4423091;32;32799;-84
2021/06/24 11:05:55;;;;;;;15.88;3.87;;;;;;;38.99;25.36;99650.16;4415346;32;34194;-83
2021/06/24 11:08:30;;;;;;;20.95;3.85;;;;;;;38.71;26.36;99654.72;4426983;32;34771;-83
2021/06/24 11:11:08;;;;;;;17.85;4.12;;;;;;;38.84;24.86;99643.34;4415852;32;35091;-83
2021/06/24 11:16:10;;;;;;;21.80;4.37;;;;;;;38.52;25.56;99648.66;4418320;32;34278;-83
2021/06/24 11:18:42;;;;;;;23.20;3.55;;;;;;;39.04;25.70;99647.47;4420595;32;34012;-84
2021/06/24 11:21:11;;;;;;;16.23;4.47;;;;;;;39.06;26.04;99648.03;4412388;32;34530;-83
2021/06/24 11:23:53;;;;;;;18.05;4.43;;;;;;;38.76;24.03;99652.06;4424133;32;32938;-83
2021/06/24 11:26:24;;;;;;;;;;;;;;;39.54;23.12;99647.22;4396354;32;35232;-83
2021/06/24 11:29:03;;;;;;;18.13;4.87;;;;;;;38.95;23.38;99637.97;4415866;32;33675;-84
2021/06/24 11:31:59;;;;;;;13.35;4.37;;;;;;;39.07;24.42;99641.41;4410474;32;33842;-83
2021/06/24 11:37:16;;;;;;;17.98;4.35;;;;;;;39.13;24.41;99635.69;4424269;32;33663;-83
2021/06/24 11:39:53;;;;;;;23.65;5.18;;;;;;;39.39;24.04;99631.31;4411107;32;33768;-83
2021/06/24 11:42:26;;;;;;;22.95;4.62;;;;;;;39.38;23.39;99637.94;4426162;32;34832;-83